Time;durP1;ratioP1;P1;durP2;ratioP2;P2;SDS_P1;SDS_P2;PMS_P1;PMS_P2;Temp;Humidity;BMP_temperature;BMP_pressure;BME280_temperature;BME280_humidity;BME280_pressure;Samples;Min_cycle;Max_cycle;Signal;HPM_P1;HPM_P2
2022/12/23 00:00:04;;;;;;;17.63;6.67;;;11.70;99.90;;;;;;5136788;27;20173;-80
2022/12/23 00:02:29;;;;;;;15.60;6.10;;;11.80;99.90;;;;;;5118743;27;20169;-80
2022/12/23 00:04:55;;;;;;;19.67;6.43;;;11.80;99.90;;;;;;5136929;27;20217;-80
2022/12/23 00:07:21;;;;;;;11.63;5.40;;;11.90;99.90;;;;;;5117977;27;20173;-80
2022/12/23 00:09:47;;;;;;;16.50;5.73;;;11.80;99.90;;;;;;5118384;27;20574;-80
2022/12/23 00:15:05;;;;;;;11.77;4.93;;;11.90;99.90;;;;;;5136951;27;20230;-80
2022/12/23 00:17:39;;;;;;;12.30;4.40;;;11.80;99.90;;;;;;5136348;27;20157;-79
2022/12/23 00:20:06;;;;;;;15.67;4.70;;;11.80;99.90;;;;;;5118334;27;20199;-79
2022/12/23 00:25:16;;;;;;;12.67;3.63;;;11.70;99.90;;;;;;5137174;27;20183;-79
2022/12/23 00:28:00;;;;;;;10.37;3.60;;;11.80;99.90;;;;;;5118121;27;20178;-79
2022/12/23 00:30:26;;;;;;;10.27;3.03;;;11.90;99.90;;;;;;5136122;27;20161;-79
2022/12/23 00:32:52;;;;;;;13.60;3.00;;;11.80;99.90;;;;;;5136080;27;20158;-80
2022/12/23 00:35:17;;;;;;;12.27;2.80;;;11.70;99.90;;;;;;5136088;27;20185;-80
2022/12/23 00:37:43;;;;;;;9.27;3.20;;;11.70;99.90;;;;;;5135374;27;20249;-79
2022/12/23 00:42:56;;;;;;;9.33;2.47;;;11.80;99.90;;;;;;5136446;27;20177;-80
2022/12/23 00:45:22;;;;;;;8.90;2.27;;;11.90;99.90;;;;;;5136892;27;20249;-79
2022/12/23 00:50:36;;;;;;;9.53;2.87;;;11.80;99.90;;;;;;5135897;27;20310;-75
2022/12/23 00:53:04;;;;;;;9.10;2.87;;;11.70;99.90;;;;;;5135559;27;20202;-76
2022/12/23 00:55:30;;;;;;;8.60;3.07;;;11.60;99.90;;;;;;5135344;27;20173;-75
2022/12/23 00:57:55;;;;;;;12.80;3.27;;;11.60;99.90;;;;;;5135637;27;20629;-75
2022/12/23 01:05:35;;;;;;;12.57;3.30;;;11.70;99.90;;;;;;5135748;27;20154;-75
2022/12/23 01:06:00;;;;;;;15.30;3.40;;;11.90;99.90;;;;;;5135231;27;20246;-75
2022/12/23 01:08:26;;;;;;;11.43;3.07;;;11.80;99.90;;;;;;5135404;27;20196;-75
2022/12/23 01:10:52;;;;;;;12.67;3.60;;;11.50;99.90;;;;;;5117085;27;20192;-74
2022/12/23 01:13:18;;;;;;;12.13;3.57;;;11.50;99.90;;;;;;5135220;27;20502;-75
2022/12/23 01:15:44;;;;;;;13.97;3.27;;;11.60;99.90;;;;;;5116889;27;20169;-74
2022/12/23 01:18:09;;;;;;;14.00;4.23;;;11.60;99.90;;;;;;5135238;27;20497;-74
2022/12/23 01:20:39;;;;;;;13.70;4.10;;;11.70;99.90;;;;;;5134871;27;20166;-74
2022/12/23 01:23:05;;;;;;;8.57;3.20;;;11.90;99.90;;;;;;5116541;27;20208;-74
2022/12/23 01:25:31;;;;;;;11.97;3.20;;;11.80;99.90;;;;;;5116548;27;20204;-74
2022/12/23 01:27:57;;;;;;;8.80;3.00;;;11.70;99.90;;;;;;5134983;27;20251;-74
2022/12/23 01:30:23;;;;;;;11.67;4.03;;;11.80;99.90;;;;;;5134891;27;20176;-75
2022/12/23 01:32:48;;;;;;;15.37;4.13;;;11.80;99.90;;;;;;5134771;27;20536;-75
2022/12/23 01:35:14;;;;;;;9.83;4.03;;;11.60;99.90;;;;;;5115940;27;20202;-75
2022/12/23 01:37:40;;;;;;;13.37;3.17;;;11.60;99.90;;;;;;5134706;27;20207;-75
2022/12/23 01:40:07;;;;;;;14.73;3.80;;;11.60;99.90;;;;;;5134560;27;20255;-74
2022/12/23 01:42:45;;;;;;;9.07;3.20;;;11.70;99.90;;;;;;5134664;27;20523;-75
2022/12/23 01:45:29;;;;;;;11.07;3.43;;;11.60;99.90;;;;;;5134534;27;20626;-74
2022/12/23 01:48:10;;;;;;;9.37;3.30;;;11.70;99.90;;;;;;5133904;27;20301;-74
2022/12/23 01:50:37;;;;;;;8.57;2.77;;;11.90;99.90;;;;;;5115904;27;20623;-74
2022/12/23 01:53:05;;;;;;;13.67;3.27;;;11.70;99.90;;;;;;5134633;27;20232;-74
2022/12/23 01:55:35;;;;;;;11.30;3.20;;;11.60;99.90;;;;;;5134782;27;20690;-74
2022/12/23 01:58:25;;;;;;;13.10;3.10;;;11.70;99.90;;;;;;5134308;27;20199;-74
2022/12/23 02:03:42;;;;;;;9.60;2.63;;;11.50;99.90;;;;;;5134180;27;20177;-74
2022/12/23 02:09:16;;;;;;;10.07;3.10;;;11.70;99.90;;;;;;5134285;27;20180;-74
2022/12/23 02:12:16;;;;;;;8.77;2.63;;;11.60;99.90;;;;;;5134295;27;20169;-74
2022/12/23 02:18:18;;;;;;;11.43;2.90;;;11.60;99.90;;;;;;5133931;27;20645;-74
2022/12/23 02:21:05;;;;;;;9.33;2.67;;;11.70;99.90;;;;;;5133962;27;20149;-74
2022/12/23 02:23:57;;;;;;;8.23;2.40;;;11.60;99.90;;;;;;5133969;27;20653;-74
2022/12/23 02:26:55;;;;;;;10.50;2.73;;;11.50;99.90;;;;;;5115557;27;20210;-75
2022/12/23 02:29:44;;;;;;;13.77;2.80;;;11.60;99.90;;;;;;5133900;27;20173;-74
2022/12/23 02:32:38;;;;;;;10.77;3.17;;;11.80;99.90;;;;;;5133917;27;20251;-74
2022/12/23 02:35:12;;;;;;;9.97;3.10;;;11.80;99.90;;;;;;5122657;27;20210;-74
2022/12/23 02:37:54;;;;;;;7.97;2.70;;;11.80;99.90;;;;;;5133651;27;20714;-74
2022/12/23 02:40:36;;;;;;;10.97;3.43;;;11.80;99.90;;;;;;5133667;27;20169;-75
2022/12/23 02:43:28;;;;;;;8.87;3.17;;;11.60;99.90;;;;;;5133794;27;20169;-75
2022/12/23 02:46:01;;;;;;;10.53;3.50;;;11.60;99.90;;;;;;5118818;27;20666;-74
2022/12/23 02:48:44;;;;;;;10.30;3.27;;;11.60;99.90;;;;;;5133564;27;20176;-74
2022/12/23 02:51:12;;;;;;;12.67;3.00;;;11.60;99.90;;;;;;5133526;27;20169;-75
2022/12/23 02:53:47;;;;;;;13.27;3.33;;;11.40;99.90;;;;;;5115260;27;20207;-75
2022/12/23 02:56:15;;;;;;;8.67;2.93;;;11.50;99.90;;;;;;5115113;27;20172;-74
2022/12/23 02:58:48;;;;;;;9.20;3.43;;;11.50;99.90;;;;;;5133598;27;20212;-73
2022/12/23 03:01:15;;;;;;;11.87;3.40;;;11.60;99.90;;;;;;5133033;27;20177;-74
2022/12/23 03:03:43;;;;;;;7.93;2.87;;;11.50;99.90;;;;;;5133431;27;20187;-75
2022/12/23 03:06:21;;;;;;;8.13;2.70;;;11.60;99.90;;;;;;5115004;28;20210;-75
2022/12/23 03:08:49;;;;;;;7.17;2.43;;;11.50;99.90;;;;;;5133611;28;20653;-75
2022/12/23 03:11:16;;;;;;;7.50;2.27;;;11.30;99.90;;;;;;5133622;28;20165;-75
2022/12/23 03:14:12;;;;;;;7.87;2.33;;;11.40;99.90;;;;;;5133514;28;20192;-75
2022/12/23 03:16:49;;;;;;;7.40;2.37;;;11.40;99.90;;;;;;5114810;28;20177;-75
2022/12/23 03:19:18;;;;;;;7.27;2.50;;;11.50;99.90;;;;;;5133793;28;20222;-75
2022/12/23 03:21:49;;;;;;;9.53;3.03;;;11.40;99.90;;;;;;5115141;28;20276;-75
2022/12/23 03:24:45;;;;;;;6.43;2.57;;;11.60;99.90;;;;;;5114911;28;20196;-75
2022/12/23 03:27:35;;;;;;;9.60;2.87;;;11.80;99.90;;;;;;5132808;28;20650;-75
2022/12/23 03:30:12;;;;;;;6.27;2.57;;;11.50;99.90;;;;;;5114912;28;20533;-75
2022/12/23 03:32:53;;;;;;;9.80;3.10;;;11.30;99.90;;;;;;5115215;28;20660;-76
2022/12/23 03:35:23;;;;;;;9.97;3.03;;;11.30;99.90;;;;;;5133407;28;20194;-74
2022/12/23 03:37:52;;;;;;;9.60;3.57;;;11.30;99.90;;;;;;5115058;28;20168;-74
2022/12/23 03:40:26;;;;;;;6.50;3.00;;;11.30;99.90;;;;;;5114919;28;20162;-74
2022/12/23 03:42:57;;;;;;;8.17;3.30;;;11.40;99.90;;;;;;5114862;28;20165;-74
2022/12/23 03:45:28;;;;;;;9.10;3.60;;;11.40;99.90;;;;;;5133141;28;20179;-74
2022/12/23 03:48:01;;;;;;;7.97;2.90;;;11.50;99.90;;;;;;5114659;28;20205;-74
2022/12/23 03:50:27;;;;;;;9.00;3.20;;;11.50;99.90;;;;;;5115044;28;20577;-74
2022/12/23 03:53:12;;;;;;;7.70;3.80;;;11.70;99.90;;;;;;5133270;28;20181;-74
2022/12/23 03:55:57;;;;;;;7.43;4.10;;;11.60;99.90;;;;;;5133107;28;20169;-74
2022/12/23 03:58:42;;;;;;;10.40;3.70;;;11.60;99.90;;;;;;5133431;28;20179;-74
2022/12/23 04:01:49;;;;;;;11.10;3.60;;;11.70;99.90;;;;;;5133120;28;20520;-74
2022/12/23 04:04:25;;;;;;;6.97;3.03;;;11.80;99.90;;;;;;5049578;28;20199;-74
2022/12/23 04:07:06;;;;;;;8.43;3.60;;;11.70;99.90;;;;;;5124925;28;20268;-74
2022/12/23 04:09:33;;;;;;;8.00;2.87;;;11.50;99.90;;;;;;5133038;28;20177;-74
2022/12/23 04:11:59;;;;;;;7.30;3.07;;;11.40;99.90;;;;;;5134563;27;20189;-74
2022/12/23 04:14:25;;;;;;;9.43;3.73;;;11.30;99.90;;;;;;5136447;27;20679;-74
2022/12/23 04:16:54;;;;;;;9.73;3.57;;;11.50;99.90;;;;;;5136903;27;20145;-74
2022/12/23 04:19:19;;;;;;;10.50;3.50;;;11.60;99.90;;;;;;5118098;27;20169;-74
2022/12/23 04:21:45;;;;;;;10.90;3.43;;;11.60;99.90;;;;;;5136431;27;20196;-74
2022/12/23 04:24:10;;;;;;;10.80;3.43;;;11.40;99.90;;;;;;5118026;27;20658;-75
2022/12/23 04:26:36;;;;;;;6.47;3.47;;;11.30;99.90;;;;;;5136511;27;20179;-74
2022/12/23 04:29:02;;;;;;;9.77;3.50;;;11.40;99.90;;;;;;5136227;27;20240;-75
2022/12/23 04:31:28;;;;;;;11.73;3.47;;;11.40;99.90;;;;;;5136565;27;20242;-74
2022/12/23 04:33:54;;;;;;;8.03;3.23;;;11.50;99.90;;;;;;5118107;27;20206;-74
2022/12/23 04:36:19;;;;;;;9.20;3.60;;;11.80;99.90;;;;;;5118065;27;20177;-76
2022/12/23 04:38:45;;;;;;;9.80;4.47;;;11.40;99.90;;;;;;5117956;27;20197;-75
2022/12/23 04:41:10;;;;;;;11.73;4.23;;;11.40;99.90;;;;;;5136513;27;20567;-75
2022/12/23 04:43:36;;;;;;;9.93;5.37;;;11.50;99.90;;;;;;5135941;27;20177;-75
2022/12/23 04:46:02;;;;;;;10.93;5.97;;;11.50;99.90;;;;;;5117832;27;20169;-73
2022/12/23 04:48:28;;;;;;;13.23;6.73;;;11.60;99.90;;;;;;5135904;27;20184;-75
2022/12/23 04:50:54;;;;;;;12.93;5.83;;;11.70;99.90;;;;;;5136032;27;20173;-74
2022/12/23 04:53:20;;;;;;;12.67;6.13;;;11.50;99.90;;;;;;5117497;27;20225;-73
2022/12/23 04:55:51;;;;;;;12.70;6.10;;;11.40;99.90;;;;;;5117446;27;20162;-77
2022/12/23 04:58:20;;;;;;;13.00;6.37;;;11.30;99.90;;;;;;5135696;27;20242;-78
2022/12/23 05:00:46;;;;;;;12.13;5.63;;;11.20;99.90;;;;;;5135936;27;20172;-78
2022/12/23 05:03:12;;;;;;;9.20;6.73;;;11.20;99.90;;;;;;5135771;27;20161;-77
2022/12/23 05:05:45;;;;;;;12.70;6.70;;;11.40;99.90;;;;;;5136240;27;20259;-78
2022/12/23 05:08:10;;;;;;;12.63;6.27;;;11.60;99.90;;;;;;5135789;27;20169;-78
2022/12/23 05:10:36;;;;;;;10.80;5.90;;;11.60;99.90;;;;;;5136243;27;20169;-77
2022/12/23 05:13:02;;;;;;;13.97;6.43;;;11.70;99.90;;;;;;5135470;27;20679;-75
2022/12/23 05:15:27;;;;;;;8.03;5.90;;;11.60;99.90;;;;;;5117233;27;20200;-75
2022/12/23 05:17:53;;;;;;;12.07;6.33;;;11.60;99.90;;;;;;5135636;27;20519;-74
2022/12/23 05:20:18;;;;;;;10.93;5.90;;;11.60;99.90;;;;;;5135633;27;20269;-75
2022/12/23 05:22:44;;;;;;;11.47;5.87;;;11.70;99.90;;;;;;5134570;27;20615;-75
2022/12/23 05:25:10;;;;;;;11.47;5.70;;;11.50;99.90;;;;;;5116714;27;20184;-75
2022/12/23 05:27:35;;;;;;;10.70;5.40;;;11.50;99.90;;;;;;5135191;27;20207;-75
2022/12/23 05:30:02;;;;;;;12.80;4.97;;;11.30;99.90;;;;;;5135263;27;20176;-75
2022/12/23 05:32:28;;;;;;;9.90;5.13;;;11.40;99.90;;;;;;5135224;27;20173;-75
2022/12/23 05:34:53;;;;;;;10.60;5.10;;;11.50;99.90;;;;;;5135031;27;20199;-75
2022/12/23 05:37:19;;;;;;;9.13;4.90;;;11.40;99.90;;;;;;5135172;27;20162;-75
2022/12/23 05:39:44;;;;;;;9.37;4.17;;;11.50;99.90;;;;;;5135077;27;20154;-75
2022/12/23 05:42:10;;;;;;;9.57;4.60;;;11.50;99.90;;;;;;5134832;27;20168;-75
2022/12/23 05:44:35;;;;;;;12.07;4.27;;;11.50;99.90;;;;;;5134942;27;20162;-75
2022/12/23 05:47:01;;;;;;;13.10;4.40;;;11.50;99.90;;;;;;5134792;27;20172;-75
2022/12/23 05:49:27;;;;;;;10.40;4.50;;;11.50;99.90;;;;;;5116365;27;20184;-75
2022/12/23 05:51:52;;;;;;;8.87;4.27;;;11.40;99.90;;;;;;5134916;27;20226;-75
2022/12/23 05:54:18;;;;;;;7.90;4.43;;;11.20;99.90;;;;;;5134653;27;20665;-75
2022/12/23 05:56:43;;;;;;;8.67;4.33;;;11.40;99.90;;;;;;5134559;27;20192;-75
2022/12/23 05:59:10;;;;;;;7.57;4.00;;;11.50;99.90;;;;;;5116320;27;20180;-75
2022/12/23 06:01:35;;;;;;;14.53;5.07;;;11.50;99.90;;;;;;5134648;27;20162;-75
2022/12/23 06:04:01;;;;;;;11.10;4.43;;;11.50;99.90;;;;;;5134492;27;20173;-74
2022/12/23 06:06:27;;;;;;;11.10;4.60;;;11.30;99.90;;;;;;5134516;27;20165;-74
2022/12/23 06:08:53;;;;;;;9.00;5.10;;;11.30;99.90;;;;;;5134307;27;20177;-76
2022/12/23 06:11:18;;;;;;;11.13;5.13;;;11.60;99.90;;;;;;5134391;27;20160;-74
2022/12/23 06:13:45;;;;;;;8.77;4.97;;;11.60;99.90;;;;;;5134463;27;20185;-74
2022/12/23 06:16:10;;;;;;;11.73;5.00;;;11.60;99.90;;;;;;5115890;27;20180;-74
2022/12/23 06:18:36;;;;;;;12.20;4.83;;;11.60;99.90;;;;;;5134354;27;20165;-76
2022/12/23 06:21:04;;;;;;;10.70;4.93;;;11.60;99.90;;;;;;5134346;27;20168;-74
2022/12/23 06:23:29;;;;;;;8.73;4.80;;;11.50;99.90;;;;;;5134110;27;20220;-74
2022/12/23 06:26:03;;;;;;;13.00;5.10;;;11.40;99.90;;;;;;5115506;27;20200;-74
2022/12/23 06:28:28;;;;;;;7.53;4.80;;;11.60;99.90;;;;;;5115822;27;20173;-75
2022/12/23 06:30:56;;;;;;;13.33;4.40;;;11.60;99.90;;;;;;5134082;27;20172;-75
2022/12/23 06:33:23;;;;;;;10.33;4.90;;;11.60;99.90;;;;;;5134015;27;20171;-75
2022/12/23 06:35:50;;;;;;;9.43;4.50;;;11.40;99.90;;;;;;5115647;27;20172;-75
2022/12/23 06:38:15;;;;;;;10.37;4.20;;;11.30;99.90;;;;;;5115384;27;20523;-75
2022/12/23 06:40:41;;;;;;;10.60;4.40;;;11.30;99.90;;;;;;5133884;27;20165;-75
2022/12/23 06:43:10;;;;;;;8.50;4.43;;;11.30;99.90;;;;;;5133943;27;20671;-75
2022/12/23 06:45:35;;;;;;;10.23;5.00;;;11.10;99.90;;;;;;5115447;27;20648;-75
2022/12/23 06:48:01;;;;;;;12.70;4.90;;;11.30;99.90;;;;;;5133977;27;20168;-75
2022/12/23 06:50:27;;;;;;;10.77;4.53;;;11.30;99.90;;;;;;5115385;27;20286;-75
2022/12/23 06:52:53;;;;;;;15.40;5.73;;;11.40;99.90;;;;;;5133669;27;20552;-75
2022/12/23 06:55:19;;;;;;;11.60;4.80;;;11.30;99.90;;;;;;5133510;27;20197;-75
2022/12/23 06:57:44;;;;;;;10.60;4.90;;;11.30;99.90;;;;;;5115379;28;20574;-75
2022/12/23 07:00:10;;;;;;;10.73;4.90;;;11.30;99.90;;;;;;5133667;27;20161;-75
2022/12/23 07:02:36;;;;;;;13.60;4.87;;;11.40;99.90;;;;;;5133809;27;20160;-75
2022/12/23 07:05:01;;;;;;;10.73;5.60;;;11.40;99.90;;;;;;5133701;27;20173;-74
2022/12/23 07:07:27;;;;;;;16.77;6.23;;;11.60;99.90;;;;;;5133388;28;20575;-75
2022/12/23 07:09:53;;;;;;;15.13;5.10;;;11.40;99.90;;;;;;5133826;28;20181;-75
2022/12/23 07:12:18;;;;;;;14.80;6.03;;;11.20;99.90;;;;;;5133385;28;20210;-76
2022/12/23 07:14:44;;;;;;;13.47;6.00;;;11.20;99.90;;;;;;5115241;28;20197;-75
2022/12/23 07:17:09;;;;;;;13.07;6.03;;;11.30;99.90;;;;;;5133289;28;20209;-75
2022/12/23 07:19:35;;;;;;;16.70;5.87;;;11.40;99.90;;;;;;5133498;28;20169;-75
2022/12/23 07:22:00;;;;;;;18.43;6.57;;;11.60;99.90;;;;;;5133183;28;20169;-76
2022/12/23 07:24:26;;;;;;;13.30;6.73;;;11.70;99.90;;;;;;5133272;28;20191;-76
2022/12/23 07:26:51;;;;;;;14.53;6.30;;;11.70;99.90;;;;;;5133261;28;20173;-76
2022/12/23 07:29:17;;;;;;;16.67;7.20;;;11.60;99.90;;;;;;5133516;28;20155;-75
2022/12/23 07:31:42;;;;;;;18.67;6.57;;;11.60;99.90;;;;;;5133275;28;20615;-74
2022/12/23 07:34:08;;;;;;;16.57;6.47;;;11.60;99.90;;;;;;5114799;28;20280;-75
2022/12/23 07:36:34;;;;;;;17.00;6.10;;;11.60;99.90;;;;;;5133043;28;20176;-74
2022/12/23 07:39:00;;;;;;;16.53;5.53;;;11.60;99.90;;;;;;5115077;28;20197;-74
2022/12/23 07:41:25;;;;;;;15.80;6.13;;;11.50;99.90;;;;;;5133393;28;20182;-74
2022/12/23 07:43:51;;;;;;;14.17;5.97;;;11.20;99.90;;;;;;5114955;28;20180;-74
2022/12/23 07:46:16;;;;;;;15.67;6.13;;;11.20;99.90;;;;;;5133544;27;20192;-75
2022/12/23 07:48:42;;;;;;;12.73;5.70;;;11.20;99.90;;;;;;5137297;27;20176;-74
2022/12/23 07:51:08;;;;;;;16.63;6.40;;;11.50;99.90;;;;;;5136971;27;20256;-74
2022/12/23 07:53:34;;;;;;;16.83;5.57;;;11.50;99.90;;;;;;5118747;27;20252;-74
2022/12/23 07:56:00;;;;;;;15.20;6.00;;;11.50;99.90;;;;;;5118471;27;20163;-74
2022/12/23 07:58:26;;;;;;;16.97;5.10;;;11.40;99.90;;;;;;5118546;27;20173;-74
2022/12/23 08:01:02;;;;;;;14.90;6.10;;;11.40;99.90;;;;;;5127016;27;20190;-74
2022/12/23 08:03:28;;;;;;;15.07;5.67;;;11.40;99.90;;;;;;5098141;28;20173;-74
2022/12/23 08:06:07;;;;;;;15.93;5.93;;;11.40;99.90;;;;;;5116280;28;20179;-80
2022/12/23 08:08:33;;;;;;;10.60;5.17;;;11.40;99.90;;;;;;5116469;28;20170;-73
2022/12/23 08:11:03;;;;;;;13.77;5.77;;;11.50;99.90;;;;;;5116297;28;20573;-74
2022/12/23 08:13:36;;;;;;;18.17;5.57;;;11.50;99.90;;;;;;5116056;28;20200;-75
2022/12/23 08:16:03;;;;;;;14.30;5.50;;;11.50;99.90;;;;;;5097693;28;20198;-75
2022/12/23 08:18:32;;;;;;;13.30;4.97;;;11.30;99.90;;;;;;5116103;28;20164;-74
2022/12/23 08:21:03;;;;;;;12.30;4.80;;;11.40;99.90;;;;;;5097864;28;20171;-75
2022/12/23 08:23:30;;;;;;;12.97;4.20;;;11.40;99.90;;;;;;5116074;28;20191;-74
2022/12/23 08:25:59;;;;;;;16.30;4.67;;;11.30;99.90;;;;;;5116185;28;20168;-74
2022/12/23 08:28:25;;;;;;;13.03;5.23;;;11.40;99.90;;;;;;5115646;28;20231;-74
2022/12/23 08:30:50;;;;;;;12.87;4.57;;;11.40;99.90;;;;;;5116170;28;20170;-75
2022/12/23 08:33:16;;;;;;;11.60;4.40;;;11.30;99.90;;;;;;5115969;28;20164;-74
2022/12/23 08:35:41;;;;;;;15.47;4.70;;;11.20;99.90;;;;;;5115399;28;20233;-74
2022/12/23 08:38:08;;;;;;;10.03;4.00;;;11.20;99.90;;;;;;5115864;28;20182;-75
2022/12/23 08:40:34;;;;;;;12.23;4.40;;;11.20;99.90;;;;;;5115984;28;20245;-74
2022/12/23 08:43:01;;;;;;;12.27;4.63;;;11.20;99.90;;;;;;5097370;28;20227;-74
2022/12/23 08:45:26;;;;;;;12.57;4.10;;;11.40;99.90;;;;;;5115580;28;20169;-75
2022/12/23 08:47:52;;;;;;;9.57;3.87;;;11.50;99.90;;;;;;5115880;28;20503;-76
2022/12/23 08:50:19;;;;;;;13.03;4.00;;;11.60;99.90;;;;;;5115568;28;20711;-76
2022/12/23 08:52:44;;;;;;;8.77;3.50;;;11.70;99.90;;;;;;5115559;28;20167;-75
2022/12/23 08:55:10;;;;;;;9.90;3.83;;;11.80;99.90;;;;;;5097001;28;20208;-74
2022/12/23 08:57:36;;;;;;;8.93;3.93;;;11.60;99.90;;;;;;5115525;28;20183;-74
2022/12/23 09:00:03;;;;;;;9.53;4.23;;;11.50;99.90;;;;;;5115426;28;20171;-75
2022/12/23 09:02:28;;;;;;;9.67;4.10;;;11.60;99.90;;;;;;5115708;28;20159;-75
2022/12/23 09:04:54;;;;;;;9.37;3.67;;;11.50;99.90;;;;;;5115074;28;20603;-76
2022/12/23 09:07:20;;;;;;;10.63;3.90;;;11.40;99.90;;;;;;5115332;28;20174;-76
2022/12/23 09:09:46;;;;;;;12.00;3.83;;;11.30;99.90;;;;;;5115052;28;20171;-75
2022/12/23 09:12:12;;;;;;;8.93;3.33;;;11.50;99.90;;;;;;5115100;28;20173;-74
2022/12/23 09:14:39;;;;;;;11.07;3.40;;;11.50;99.90;;;;;;5114869;28;20248;-75
2022/12/23 09:17:05;;;;;;;10.97;3.60;;;11.60;99.90;;;;;;5114933;28;20171;-74
2022/12/23 09:19:31;;;;;;;10.70;3.30;;;11.60;99.90;;;;;;5114714;28;20216;-75
2022/12/23 09:21:59;;;;;;;7.40;3.83;;;11.80;99.90;;;;;;5115057;28;20162;-74
2022/12/23 09:24:26;;;;;;;8.80;4.00;;;11.70;99.90;;;;;;5096469;28;20195;-75
2022/12/23 09:26:51;;;;;;;12.50;3.87;;;11.70;99.90;;;;;;5115006;28;20180;-74
2022/12/23 09:29:17;;;;;;;7.17;3.90;;;11.80;99.90;;;;;;5114558;28;20178;-75
2022/12/23 09:31:43;;;;;;;9.70;3.60;;;11.80;99.90;;;;;;5096299;28;20226;-75
2022/12/23 09:34:10;;;;;;;8.70;3.87;;;11.70;99.90;;;;;;5113765;28;20280;-75
2022/12/23 09:36:36;;;;;;;8.57;3.90;;;11.60;99.90;;;;;;5114425;28;20171;-75
2022/12/23 09:39:04;;;;;;;8.83;4.40;;;11.60;99.90;;;;;;5096086;28;20189;-75
2022/12/23 09:42:03;;;;;;;7.40;4.33;;;11.60;99.90;;;;;;5096114;28;20211;-75
2022/12/23 09:45:10;;;;;;;9.07;4.60;;;11.40;99.90;;;;;;5108471;28;20227;-76
2022/12/23 09:48:09;;;;;;;;;;;;;;;;;;;;;
2022/12/23 09:50:54;;;;;;;10.20;5.20;;;11.50;99.90;;;;;;5113799;28;20169;-75
2022/12/23 09:53:25;;;;;;;14.63;4.73;;;11.60;99.90;;;;;;5095930;28;20170;-75
2022/12/23 09:56:25;;;;;;;8.87;5.53;;;11.70;99.90;;;;;;5114249;28;20181;-77
2022/12/23 09:59:28;;;;;;;8.87;4.90;;;11.80;99.90;;;;;;5113122;28;20174;-78
2022/12/23 10:02:25;;;;;;;9.97;4.90;;;11.70;99.90;;;;;;5079878;28;20182;-79
2022/12/23 10:05:14;;;;;;;10.87;5.80;;;11.70;99.90;;;;;;5094757;28;20182;-75
2022/12/23 10:08:13;;;;;;;9.33;5.00;;;11.80;99.90;;;;;;5095963;28;20649;-75
2022/12/23 10:10:44;;;;;;;11.03;5.87;;;11.90;99.90;;;;;;5089560;28;20182;-75
2022/12/23 10:13:28;;;;;;;7.53;5.13;;;11.80;99.90;;;;;;5113944;28;20168;-76
2022/12/23 10:16:00;;;;;;;7.90;5.10;;;11.80;99.90;;;;;;5074680;28;20314;-75
2022/12/23 10:19:02;;;;;;;9.47;5.70;;;11.80;99.90;;;;;;5074338;28;20168;-75
2022/12/23 10:21:48;;;;;;;10.37;5.27;;;11.80;99.90;;;;;;5075028;28;20184;-75
2022/12/23 10:24:25;;;;;;;11.27;5.40;;;11.80;99.90;;;;;;5093226;28;20618;-75
2022/12/23 10:26:59;;;;;;;11.27;5.43;;;11.90;99.90;;;;;;5075370;28;20159;-74
2022/12/23 10:29:29;;;;;;;8.03;5.47;;;12.00;99.90;;;;;;5093184;28;20170;-75
2022/12/23 10:32:43;;;;;;;7.57;5.23;;;11.90;99.90;;;;;;5075108;28;20172;-75
2022/12/23 10:35:34;;;;;;;7.87;4.63;;;11.90;99.90;;;;;;5070150;28;20733;-75
2022/12/23 10:38:25;;;;;;;7.47;5.03;;;11.90;99.90;;;;;;5093280;28;20168;-75
2022/12/23 10:41:04;;;;;;;6.93;5.23;;;11.90;99.90;;;;;;5093134;28;20175;-75
2022/12/23 10:43:46;;;;;;;8.23;5.67;;;11.90;99.90;;;;;;5092945;28;20245;-75
2022/12/23 10:46:42;;;;;;;7.47;5.70;;;11.90;99.90;;;;;;5092645;28;20220;-76
2022/12/23 10:49:08;;;;;;;7.90;5.00;;;11.90;99.90;;;;;;5093043;28;20202;-75
2022/12/23 10:51:44;;;;;;;6.70;5.50;;;11.90;99.90;;;;;;5074858;28;20275;-76
2022/12/23 10:54:32;;;;;;;6.43;5.70;;;11.80;99.90;;;;;;5092866;28;20266;-76
2022/12/23 10:56:58;;;;;;;7.03;5.03;;;11.90;99.90;;;;;;5092649;28;20266;-75
2022/12/23 10:59:27;;;;;;;8.17;5.57;;;11.90;99.90;;;;;;5092627;28;20176;-76
2022/12/23 11:02:12;;;;;;;7.83;5.80;;;11.80;99.90;;;;;;5074622;28;20172;-75
2022/12/23 11:04:40;;;;;;;7.27;5.13;;;11.70;99.90;;;;;;5074770;28;20679;-75
2022/12/23 11:07:13;;;;;;;9.57;5.70;;;11.80;99.90;;;;;;5074640;28;20264;-75
2022/12/23 11:09:45;;;;;;;7.60;4.20;;;11.80;99.90;;;;;;5092964;28;20520;-76
2022/12/23 11:12:11;;;;;;;7.87;5.20;;;11.70;99.90;;;;;;5074633;28;20183;-74
2022/12/23 11:14:55;;;;;;;7.40;5.23;;;11.70;99.90;;;;;;5092829;28;20220;-75
2022/12/23 11:17:23;;;;;;;5.87;4.60;;;11.70;99.90;;;;;;5074442;28;20175;-75
2022/12/23 11:20:12;;;;;;;7.43;5.40;;;11.80;99.90;;;;;;5092616;28;20529;-75
2022/12/23 11:22:47;;;;;;;5.60;4.20;;;11.80;99.90;;;;;;5095415;28;20184;-74
2022/12/23 11:25:26;;;;;;;5.93;4.57;;;11.80;99.90;;;;;;5078663;28;20179;-76
2022/12/23 11:28:01;;;;;;;7.10;4.60;;;11.80;99.90;;;;;;5097316;28;20195;-75
2022/12/23 11:30:28;;;;;;;6.03;4.53;;;12.00;99.90;;;;;;5096688;28;20166;-75
2022/12/23 11:32:55;;;;;;;5.57;3.77;;;12.10;99.90;;;;;;5096696;28;20195;-76
2022/12/23 11:35:29;;;;;;;5.27;3.90;;;12.00;99.90;;;;;;5095443;28;20233;-75
2022/12/23 11:37:57;;;;;;;5.53;3.20;;;11.90;99.90;;;;;;5096614;28;20157;-76
2022/12/23 11:40:25;;;;;;;3.87;3.07;;;11.90;99.90;;;;;;5078249;28;20640;-76
2022/12/23 11:43:00;;;;;;;6.67;2.80;;;11.90;99.90;;;;;;5096132;28;20651;-76
2022/12/23 11:45:31;;;;;;;4.03;2.60;;;11.90;99.90;;;;;;5096413;28;20254;-77
2022/12/23 11:47:57;;;;;;;2.97;1.83;;;11.90;99.90;;;;;;5096298;28;20171;-75
2022/12/23 11:50:39;;;;;;;3.07;1.90;;;11.90;99.90;;;;;;5078154;28;20526;-74
2022/12/23 11:53:21;;;;;;;9.10;3.30;;;11.80;99.90;;;;;;5078086;28;20196;-75
2022/12/23 11:56:10;;;;;;;2.80;1.77;;;11.80;99.90;;;;;;5077841;28;20621;-75
2022/12/23 11:58:47;;;;;;;2.00;1.57;;;11.90;99.90;;;;;;5094671;28;20182;-73
2022/12/23 12:01:22;;;;;;;2.10;1.80;;;12.00;99.90;;;;;;5096043;28;20173;-76
2022/12/23 12:04:02;;;;;;;4.13;1.93;;;12.20;99.90;;;;;;5096085;28;20627;-80
2022/12/23 12:06:29;;;;;;;2.83;1.87;;;12.20;99.90;;;;;;5096189;28;20654;-75
2022/12/23 12:08:57;;;;;;;3.63;1.93;;;12.30;99.90;;;;;;5096195;28;20168;-74
2022/12/23 12:11:47;;;;;;;3.13;2.37;;;12.20;99.90;;;;;;5077543;28;20182;-74
2022/12/23 12:14:25;;;;;;;2.97;1.80;;;12.30;99.90;;;;;;5077683;28;20685;-75
2022/12/23 12:16:51;;;;;;;3.67;2.07;;;12.30;99.90;;;;;;5077759;28;20529;-75
2022/12/23 12:19:23;;;;;;;3.40;1.90;;;12.40;99.90;;;;;;5077620;28;20182;-74
2022/12/23 12:21:55;;;;;;;2.90;2.13;;;12.50;99.90;;;;;;5096012;28;20612;-74
2022/12/23 12:24:26;;;;;;;2.37;2.07;;;12.60;99.90;;;;;;5095578;28;20198;-75
2022/12/23 12:26:56;;;;;;;3.83;1.90;;;12.90;99.90;;;;;;5077290;28;20176;-74
2022/12/23 12:29:38;;;;;;;2.23;1.60;;;13.10;99.90;;;;;;5095691;28;20262;-74
2022/12/23 12:32:20;;;;;;;4.00;1.70;;;13.10;99.90;;;;;;5095086;28;20256;-76
2022/12/23 12:34:59;;;;;;;4.80;2.00;;;13.10;99.90;;;;;;5095498;28;20274;-76
2022/12/23 12:37:47;;;;;;;2.47;1.90;;;13.20;99.90;;;;;;5077310;28;20256;-77
2022/12/23 12:40:26;;;;;;;1.87;1.40;;;13.30;99.90;;;;;;5077276;28;20658;-76
2022/12/23 12:43:13;;;;;;;3.90;1.90;;;13.30;99.90;;;;;;5077015;28;20260;-77
2022/12/23 12:45:50;;;;;;;2.73;1.70;;;13.60;99.90;;;;;;5077636;28;20582;-76
2022/12/23 12:48:27;;;;;;;2.70;1.63;;;13.70;99.90;;;;;;5095648;28;20215;-75
2022/12/23 12:51:14;;;;;;;1.83;1.40;;;13.50;99.90;;;;;;5095366;28;20165;-75
2022/12/23 12:53:56;;;;;;;2.67;1.50;;;13.70;99.90;;;;;;5095111;28;20294;-77
2022/12/23 12:56:33;;;;;;;1.97;1.30;;;13.60;99.90;;;;;;5095008;28;20170;-76
2022/12/23 12:58:59;;;;;;;2.57;1.40;;;13.80;99.90;;;;;;5076928;28;20617;-76
2022/12/23 13:01:36;;;;;;;2.57;1.20;;;13.80;99.90;;;;;;5095051;28;20247;-76
2022/12/23 13:04:06;;;;;;;2.57;1.13;;;13.80;99.90;;;;;;5076803;28;20174;-76
2022/12/23 13:06:51;;;;;;;2.07;1.10;;;13.80;99.90;;;;;;5076815;28;20177;-76
2022/12/23 13:09:42;;;;;;;1.67;0.80;;;13.90;99.90;;;;;;5094918;28;20632;-77
2022/12/23 13:12:23;;;;;;;1.20;1.00;;;13.90;99.90;;;;;;5076755;28;20167;-76
2022/12/23 13:14:51;;;;;;;0.87;0.70;;;13.90;99.90;;;;;;5076358;28;20193;-76
2022/12/23 13:17:27;;;;;;;1.50;1.33;;;13.90;99.90;;;;;;5076526;28;20180;-76
2022/12/23 13:19:59;;;;;;;1.67;1.00;;;13.90;99.90;;;;;;5094607;28;20168;-77
2022/12/23 13:22:32;;;;;;;0.97;0.87;;;13.80;99.90;;;;;;5093314;28;20251;-77
2022/12/23 13:25:01;;;;;;;2.27;1.40;;;13.80;99.90;;;;;;5076202;28;20191;-77
2022/12/23 13:27:33;;;;;;;1.10;0.90;;;13.90;99.90;;;;;;5094512;28;20537;-76
2022/12/23 13:30:19;;;;;;;1.33;1.10;;;13.90;99.90;;;;;;5076224;28;20171;-78